createdAt,value
2023-03-15T00:03:43.330Z,100084.22
2023-03-15T00:08:50.944Z,100081.09
2023-03-15T00:13:56.745Z,100080.41
2023-03-15T00:18:59.385Z,100068.16
2023-03-15T00:24:00.499Z,100064.94
2023-03-15T00:28:59.608Z,100062.72
2023-03-15T00:34:00.977Z,100063.97
2023-03-15T00:39:04.028Z,100055.06
2023-03-15T00:44:04.881Z,100041.53
2023-03-15T00:49:05.579Z,100036.06
2023-03-15T00:54:06.251Z,100030.03
2023-03-15T00:59:08.129Z,100016.59
2023-03-15T01:04:11.109Z,100013.34
2023-03-15T01:09:13.955Z,100013.06
2023-03-15T01:14:16.707Z,100002.75
2023-03-15T01:19:18.378Z,100007.81
2023-03-15T01:24:28.904Z,99998.19
2023-03-15T01:29:28.878Z,99996.84
2023-03-15T01:34:28.298Z,99983.81
2023-03-15T01:39:29.163Z,99980.09
2023-03-15T01:44:50.379Z,99982.41
2023-03-15T01:49:54.328Z,99964.56
2023-03-15T01:55:06.358Z,99949.94
2023-03-15T02:00:25.660Z,99963.41
2023-03-15T02:05:34.939Z,99967.97
2023-03-15T02:10:40.164Z,99971.59
2023-03-15T02:15:40.182Z,99976.44
2023-03-15T02:20:50.968Z,99968.78
2023-03-15T02:25:51.316Z,99971.47
2023-03-15T02:30:53.585Z,99962.34
2023-03-15T02:35:52.781Z,99960.19
2023-03-15T02:40:51.336Z,99961.13
2023-03-15T02:45:53.965Z,99950.94
2023-03-15T02:51:06.599Z,99959.03
2023-03-15T02:56:06.558Z,99964.13
2023-03-15T03:01:06.508Z,99969.44
2023-03-15T03:06:10.872Z,99975.66
2023-03-15T03:11:11.512Z,99983.78
2023-03-15T03:16:09.382Z,99992.09
2023-03-15T03:21:11.758Z,99978.84
2023-03-15T03:26:17.726Z,99966.81
2023-03-15T03:31:24.026Z,99966.97
2023-03-15T03:36:25.564Z,99977.91
2023-03-15T03:41:24.654Z,99968.97
2023-03-15T03:46:26.330Z,99966.41
2023-03-15T03:51:24.489Z,99967.38
2023-03-15T03:56:26.814Z,99961.50
2023-03-15T04:01:27.476Z,99959.28
2023-03-15T04:06:29.985Z,99960.88
2023-03-15T04:11:30.540Z,99951.16
2023-03-15T04:16:32.256Z,99947.47
2023-03-15T04:21:35.618Z,99933.81
2023-03-15T04:27:00.744Z,99940.78
2023-03-15T04:32:22.684Z,99947.34
2023-03-15T04:37:45.845Z,99952.09
2023-03-15T04:43:09.858Z,99958.66
2023-03-15T04:48:17.205Z,99960.13
2023-03-15T04:53:41.043Z,99960.00
2023-03-15T04:59:02.937Z,99954.03
2023-03-15T05:04:29.095Z,99950.91
2023-03-15T05:09:57.160Z,99941.94
2023-03-15T05:15:06.808Z,99945.09
2023-03-15T05:20:29.080Z,99935.44
2023-03-15T05:25:58.988Z,99922.25
2023-03-15T05:31:22.958Z,99920.25
2023-03-15T05:36:45.018Z,99909.09
2023-03-15T05:42:11.743Z,99909.63
2023-03-15T05:47:34.088Z,99913.44
2023-03-15T05:52:43.166Z,99915.06
2023-03-15T05:58:12.699Z,99916.09
2023-03-15T06:03:23.458Z,99918.44
2023-03-15T06:08:34.966Z,99912.34
2023-03-15T06:13:37.647Z,99909.28
2023-03-15T06:18:47.192Z,99904.47
2023-03-15T06:23:46.602Z,99910.56
2023-03-15T06:28:45.557Z,99901.56
2023-03-15T06:33:47.912Z,99843.59
2023-03-15T06:38:53.081Z,99897.09
2023-03-15T06:43:56.153Z,99898.06
2023-03-15T06:48:57.855Z,99833.00
2023-03-15T06:54:00.549Z,99897.78
2023-03-15T06:59:02.124Z,99894.81
2023-03-15T07:04:02.522Z,99899.88
2023-03-15T07:09:04.025Z,99901.69
2023-03-15T07:14:06.286Z,99886.25
2023-03-15T07:19:05.674Z,99880.41
2023-03-15T07:24:09.138Z,99877.81
2023-03-15T07:29:11.554Z,99875.88
2023-03-15T07:34:43.475Z,99871.84
2023-03-15T07:39:45.145Z,99871.78
2023-03-15T07:44:45.547Z,99873.41
2023-03-15T07:49:47.624Z,99875.56
2023-03-15T07:54:47.255Z,99858.09
2023-03-15T07:59:47.315Z,99854.63
2023-03-15T08:04:59.009Z,99856.25
2023-03-15T08:10:09.454Z,99841.81
2023-03-15T08:15:12.796Z,99845.88
2023-03-15T08:26:05.293Z,99820.66
2023-03-15T08:31:16.948Z,99825.47
2023-03-15T08:36:22.314Z,99838.84
2023-03-15T08:41:21.649Z,99831.69
2023-03-15T08:46:25.666Z,99832.06
2023-03-15T08:51:26.490Z,99844.34
2023-03-15T08:56:27.706Z,99852.38
2023-03-15T09:01:26.519Z,99855.78
2023-03-15T09:06:33.781Z,99842.03
2023-03-15T09:11:33.900Z,99843.06
2023-03-15T09:16:32.139Z,99844.47
2023-03-15T09:21:33.187Z,99831.09
2023-03-15T09:26:35.763Z,99837.72
2023-03-15T09:31:36.352Z,99844.06
2023-03-15T09:36:36.120Z,99838.31
2023-03-15T09:42:11.172Z,99839.00
2023-03-15T09:47:21.192Z,99819.59
2023-03-15T09:52:24.974Z,99810.97
2023-03-15T09:57:31.214Z,99806.75
2023-03-15T10:02:36.387Z,99812.59
2023-03-15T10:07:35.398Z,99823.28
2023-03-15T10:12:46.679Z,99826.31
2023-03-15T10:17:46.098Z,99826.31
2023-03-15T10:22:48.549Z,99816.78
2023-03-15T10:27:51.474Z,99815.47
2023-03-15T10:32:54.057Z,99805.81
2023-03-15T10:37:55.418Z,99797.22
2023-03-15T10:42:54.452Z,99802.81
2023-03-15T10:48:00.394Z,99791.47
2023-03-15T10:53:08.888Z,99791.88
2023-03-15T10:58:31.493Z,99784.81
2023-03-15T11:03:32.223Z,99772.66
2023-03-15T11:08:44.244Z,99761.78
2023-03-15T11:13:44.092Z,99753.25
2023-03-15T11:18:48.691Z,99735.72
2023-03-15T11:23:51.521Z,99730.84
2023-03-15T11:28:54.438Z,99715.91
2023-03-15T11:33:55.674Z,99709.31
2023-03-15T11:38:57.999Z,99702.31
2023-03-15T11:44:00.891Z,99691.09
2023-03-15T11:49:16.329Z,99694.19
2023-03-15T11:54:14.620Z,99697.38
2023-03-15T11:59:16.042Z,99697.16
2023-03-15T12:04:28.481Z,99689.56
2023-03-15T12:09:34.009Z,99696.16
2023-03-15T12:14:34.971Z,99698.75
2023-03-15T12:19:36.439Z,99689.56
2023-03-15T12:24:39.860Z,99689.41
2023-03-15T12:29:42.403Z,99687.22
2023-03-15T12:34:47.356Z,99679.31
2023-03-15T12:39:47.944Z,99686.44
2023-03-15T12:44:53.498Z,99673.31
2023-03-15T12:49:59.993Z,99673.09
2023-03-15T12:55:00.368Z,99659.44
2023-03-15T13:00:13.460Z,99656.81
2023-03-15T13:05:37.611Z,99652.06
2023-03-15T13:10:35.891Z,99654.91
2023-03-15T13:16:08.124Z,99657.50
2023-03-15T13:21:24.210Z,99657.13
2023-03-15T13:26:42.946Z,99667.13
2023-03-15T13:31:46.876Z,99677.06
2023-03-15T13:36:58.778Z,99664.69
2023-03-15T13:42:04.566Z,99672.03
2023-03-15T13:47:08.690Z,99677.41
2023-03-15T13:52:12.551Z,99671.50
2023-03-15T13:57:19.039Z,99667.59
2023-03-15T14:02:25.546Z,99663.28
2023-03-15T14:07:36.790Z,99677.16
2023-03-15T14:12:35.995Z,99664.22
2023-03-15T14:18:00.794Z,99661.91
2023-03-15T14:23:06.039Z,99663.66
2023-03-15T14:28:08.252Z,99665.22
2023-03-15T14:33:33.793Z,99663.34
2023-03-15T14:38:33.968Z,99661.88
2023-03-15T14:43:32.714Z,99659.44
2023-03-15T14:48:32.317Z,99657.44
2023-03-15T14:53:35.538Z,99657.22
2023-03-15T14:58:37.193Z,99660.94
2023-03-15T15:03:49.800Z,99661.66
2023-03-15T15:08:49.393Z,99659.91
2023-03-15T15:13:48.059Z,99663.63
2023-03-15T15:18:56.714Z,99667.44
2023-03-15T15:23:59.672Z,99656.34
2023-03-15T15:28:58.665Z,99662.03
2023-03-15T15:33:57.641Z,99667.91
2023-03-15T15:38:56.488Z,99663.16
2023-03-15T15:43:54.525Z,99668.16
2023-03-15T15:48:55.558Z,99665.34
2023-03-15T15:53:55.682Z,99664.50
2023-03-15T15:58:56.244Z,99663.72
2023-03-15T16:03:54.964Z,99664.28
2023-03-15T16:08:57.715Z,99678.97
2023-03-15T16:13:58.614Z,99678.44
2023-03-15T16:19:02.233Z,99688.81
2023-03-15T16:24:25.402Z,99693.75
2023-03-15T16:29:33.972Z,99706.63
2023-03-15T16:34:35.077Z,99696.25
2023-03-15T16:39:37.654Z,99691.88
2023-03-15T16:44:37.545Z,99700.94
2023-03-15T16:49:47.776Z,99701.22
2023-03-15T16:54:48.426Z,99698.41
2023-03-15T16:59:50.892Z,99705.66
2023-03-15T17:04:51.106Z,99723.19
2023-03-15T17:09:53.915Z,99725.78
2023-03-15T17:14:56.877Z,99740.28
2023-03-15T17:19:59.243Z,99730.81
2023-03-15T17:25:08.110Z,99720.91
2023-03-15T17:30:25.007Z,99730.97
2023-03-15T17:35:30.009Z,99727.78
2023-03-15T17:40:31.450Z,99736.50
2023-03-15T17:45:35.464Z,99736.63
2023-03-15T17:50:35.687Z,99751.47
2023-03-15T17:55:35.375Z,99762.22
2023-03-15T18:00:32.944Z,99770.44
2023-03-15T18:05:35.347Z,99772.53
2023-03-15T18:10:43.683Z,99766.72
2023-03-15T18:15:45.318Z,99783.16
2023-03-15T18:20:47.326Z,99785.44
2023-03-15T18:25:50.008Z,99783.41
2023-03-15T18:30:51.470Z,99782.66
2023-03-15T18:35:56.912Z,99789.28
2023-03-15T18:41:18.139Z,99794.41
2023-03-15T18:46:21.090Z,99808.34
2023-03-15T18:51:34.934Z,99815.91
2023-03-15T18:56:35.245Z,99818.03
2023-03-15T19:01:37.330Z,99816.06
2023-03-15T19:06:45.282Z,99824.22
2023-03-15T19:11:47.124Z,99835.72
2023-03-15T19:16:45.970Z,99849.88
2023-03-15T19:21:45.497Z,99861.00
2023-03-15T19:26:46.241Z,99860.03
2023-03-15T19:31:45.229Z,99871.91
2023-03-15T19:36:45.617Z,99865.72
2023-03-15T19:41:49.329Z,99882.38
2023-03-15T19:46:49.933Z,99882.53
2023-03-15T19:51:52.080Z,99888.91
2023-03-15T19:56:56.417Z,99901.06
2023-03-15T20:02:05.302Z,99901.69
2023-03-15T20:07:05.991Z,99907.00
2023-03-15T20:12:05.656Z,99913.03
2023-03-15T20:17:07.554Z,99901.69
2023-03-15T20:22:08.222Z,99908.63
2023-03-15T20:27:09.667Z,99910.78
2023-03-15T20:32:13.138Z,99918.50
2023-03-15T20:37:14.959Z,99933.88
2023-03-15T20:42:16.944Z,99935.22
2023-03-15T20:47:20.412Z,99944.28
2023-03-15T20:52:22.735Z,99951.31
2023-03-15T20:57:35.888Z,99950.22
2023-03-15T21:02:48.092Z,99946.81
2023-03-15T21:07:48.217Z,99951.84
2023-03-15T21:12:49.022Z,99953.81
2023-03-15T21:17:58.891Z,99959.75
2023-03-15T21:22:59.779Z,99974.13
2023-03-15T21:28:03.169Z,99981.88
2023-03-15T21:33:03.900Z,99979.81
2023-03-15T21:38:06.880Z,99987.72
2023-03-15T21:43:06.175Z,99984.34
2023-03-15T21:48:16.224Z,99989.72
2023-03-15T21:53:16.764Z,99997.22
2023-03-15T21:58:15.658Z,100001.47
2023-03-15T22:03:24.505Z,100009.13
2023-03-15T22:08:26.348Z,100005.69
2023-03-15T22:13:26.609Z,100006.34
2023-03-15T22:18:31.621Z,100006.88
2023-03-15T22:23:32.591Z,100013.63
2023-03-15T22:28:32.820Z,100025.00
2023-03-15T22:33:34.474Z,100033.16
2023-03-15T22:38:37.736Z,100036.47
2023-03-15T22:44:00.822Z,100041.31
2023-03-15T22:49:11.787Z,100038.94
2023-03-15T22:54:14.800Z,100044.63
2023-03-15T22:59:13.289Z,100042.03
2023-03-15T23:04:18.917Z,100055.94
2023-03-15T23:09:25.655Z,100055.44
2023-03-15T23:14:30.086Z,100050.09
2023-03-15T23:19:34.137Z,100063.59
2023-03-15T23:24:35.075Z,100067.47
2023-03-15T23:29:54.458Z,100081.44
2023-03-15T23:34:56.643Z,100071.47
2023-03-15T23:39:58.188Z,100084.47
2023-03-15T23:45:01.756Z,100084.47
2023-03-15T23:50:07.008Z,100090.22
2023-03-15T23:55:06.693Z,100097.47
